sensor_id;sensor_type;location;lat;lon;timestamp;temperature;humidity
19732;DHT22;10017;54.350;18.532;2022-12-18T00:02:06;-5.40;99.90
19732;DHT22;10017;54.350;18.532;2022-12-18T00:04:38;-5.40;99.90
19732;DHT22;10017;54.350;18.532;2022-12-18T00:07:09;-5.40;99.90
19732;DHT22;10017;54.350;18.532;2022-12-18T00:09:41;-5.40;99.90
19732;DHT22;10017;54.350;18.532;2022-12-18T00:12:13;-5.50;99.90
19732;DHT22;10017;54.350;18.532;2022-12-18T00:14:46;-5.50;99.90
19732;DHT22;10017;54.350;18.532;2022-12-18T00:17:17;-5.60;99.90
19732;DHT22;10017;54.350;18.532;2022-12-18T00:19:49;-5.70;99.90
19732;DHT22;10017;54.350;18.532;2022-12-18T00:22:21;-5.80;99.90
19732;DHT22;10017;54.350;18.532;2022-12-18T00:24:53;-5.80;99.90
19732;DHT22;10017;54.350;18.532;2022-12-18T00:27:25;-5.80;99.90
19732;DHT22;10017;54.350;18.532;2022-12-18T00:29:56;-5.80;99.90
19732;DHT22;10017;54.350;18.532;2022-12-18T00:32:28;-5.80;99.90
19732;DHT22;10017;54.350;18.532;2022-12-18T00:35:00;-5.80;99.90
19732;DHT22;10017;54.350;18.532;2022-12-18T00:37:37;-5.80;99.90
19732;DHT22;10017;54.350;18.532;2022-12-18T00:40:09;-5.80;99.90
19732;DHT22;10017;54.350;18.532;2022-12-18T00:42:44;-5.80;99.90
19732;DHT22;10017;54.350;18.532;2022-12-18T00:45:29;-5.70;99.90
19732;DHT22;10017;54.350;18.532;2022-12-18T00:48:01;-5.70;99.90
19732;DHT22;10017;54.350;18.532;2022-12-18T00:50:33;-5.70;99.90
19732;DHT22;10017;54.350;18.532;2022-12-18T00:53:05;-5.60;99.90
19732;DHT22;10017;54.350;18.532;2022-12-18T00:55:37;-5.60;99.90
19732;DHT22;10017;54.350;18.532;2022-12-18T00:58:11;-5.60;99.90
19732;DHT22;10017;54.350;18.532;2022-12-18T01:00:43;-5.60;99.90
19732;DHT22;10017;54.350;18.532;2022-12-18T01:03:17;-5.50;99.90
19732;DHT22;10017;54.350;18.532;2022-12-18T01:05:49;-5.50;99.90
19732;DHT22;10017;54.350;18.532;2022-12-18T01:08:21;-5.50;99.90
19732;DHT22;10017;54.350;18.532;2022-12-18T01:10:53;-5.50;99.90
19732;DHT22;10017;54.350;18.532;2022-12-18T01:13:25;-5.50;99.90
19732;DHT22;10017;54.350;18.532;2022-12-18T01:15:57;-5.50;99.90
19732;DHT22;10017;54.350;18.532;2022-12-18T01:18:29;-5.50;99.90
19732;DHT22;10017;54.350;18.532;2022-12-18T01:21:02;-5.50;99.90
19732;DHT22;10017;54.350;18.532;2022-12-18T01:23:36;-5.60;99.90
19732;DHT22;10017;54.350;18.532;2022-12-18T01:26:11;-5.50;99.90
19732;DHT22;10017;54.350;18.532;2022-12-18T01:28:48;-5.50;99.90
19732;DHT22;10017;54.350;18.532;2022-12-18T01:31:21;-5.60;99.90
19732;DHT22;10017;54.350;18.532;2022-12-18T01:33:56;-5.60;99.90
19732;DHT22;10017;54.350;18.532;2022-12-18T01:36:29;-5.60;99.90
19732;DHT22;10017;54.350;18.532;2022-12-18T01:39:05;-5.50;99.90
19732;DHT22;10017;54.350;18.532;2022-12-18T01:41:37;-5.50;99.90
19732;DHT22;10017;54.350;18.532;2022-12-18T01:47:44;-5.40;99.90
19732;DHT22;10017;54.350;18.532;2022-12-18T01:52:50;-5.30;99.90
19732;DHT22;10017;54.350;18.532;2022-12-18T01:55:23;-5.30;99.90
19732;DHT22;10017;54.350;18.532;2022-12-18T01:57:57;-5.20;99.90
19732;DHT22;10017;54.350;18.532;2022-12-18T02:00:29;-5.20;99.90
19732;DHT22;10017;54.350;18.532;2022-12-18T02:03:01;-5.10;99.90
19732;DHT22;10017;54.350;18.532;2022-12-18T02:05:40;-5.10;99.90
19732;DHT22;10017;54.350;18.532;2022-12-18T02:13:46;-5.00;99.90
19732;DHT22;10017;54.350;18.532;2022-12-18T02:16:29;-5.00;99.90
19732;DHT22;10017;54.350;18.532;2022-12-18T02:19:12;-5.00;99.90
19732;DHT22;10017;54.350;18.532;2022-12-18T02:21:49;-4.90;99.90
19732;DHT22;10017;54.350;18.532;2022-12-18T02:27:04;-4.80;99.90
19732;DHT22;10017;54.350;18.532;2022-12-18T02:29:39;-4.70;99.90
19732;DHT22;10017;54.350;18.532;2022-12-18T02:32:14;-4.60;99.90
19732;DHT22;10017;54.350;18.532;2022-12-18T02:34:46;-4.60;99.90
19732;DHT22;10017;54.350;18.532;2022-12-18T02:37:22;-4.60;99.90
19732;DHT22;10017;54.350;18.532;2022-12-18T02:39:55;-4.60;99.90
19732;DHT22;10017;54.350;18.532;2022-12-18T02:42:28;-4.60;99.90
19732;DHT22;10017;54.350;18.532;2022-12-18T02:45:02;-4.60;99.90
19732;DHT22;10017;54.350;18.532;2022-12-18T02:47:36;-4.60;99.90
19732;DHT22;10017;54.350;18.532;2022-12-18T02:55:33;-4.60;99.90
19732;DHT22;10017;54.350;18.532;2022-12-18T03:03:14;-4.60;99.90
19732;DHT22;10017;54.350;18.532;2022-12-18T03:08:26;-4.60;99.90
19732;DHT22;10017;54.350;18.532;2022-12-18T03:16:14;-4.70;99.90
19732;DHT22;10017;54.350;18.532;2022-12-18T03:19:31;-4.70;99.90
19732;DHT22;10017;54.350;18.532;2022-12-18T03:21:43;-4.70;99.90
19732;DHT22;10017;54.350;18.532;2022-12-18T03:24:15;-4.70;99.90
19732;DHT22;10017;54.350;18.532;2022-12-18T03:26:50;-4.70;99.90
19732;DHT22;10017;54.350;18.532;2022-12-18T03:29:24;-4.70;99.90
19732;DHT22;10017;54.350;18.532;2022-12-18T03:31:58;-4.70;99.90
19732;DHT22;10017;54.350;18.532;2022-12-18T03:34:33;-4.70;99.90
19732;DHT22;10017;54.350;18.532;2022-12-18T03:37:06;-4.70;99.90
19732;DHT22;10017;54.350;18.532;2022-12-18T03:39:40;-4.80;99.90
19732;DHT22;10017;54.350;18.532;2022-12-18T03:47:28;-4.80;99.90
19732;DHT22;10017;54.350;18.532;2022-12-18T03:50:15;-4.80;99.90
19732;DHT22;10017;54.350;18.532;2022-12-18T03:52:59;-4.90;99.90
19732;DHT22;10017;54.350;18.532;2022-12-18T03:55:32;-4.90;99.90
19732;DHT22;10017;54.350;18.532;2022-12-18T03:58:07;-4.90;99.90
19732;DHT22;10017;54.350;18.532;2022-12-18T04:00:39;-4.90;99.90
19732;DHT22;10017;54.350;18.532;2022-12-18T04:03:11;-4.90;99.90
19732;DHT22;10017;54.350;18.532;2022-12-18T04:05:44;-4.90;99.90
19732;DHT22;10017;54.350;18.532;2022-12-18T04:08:19;-4.80;99.90
19732;DHT22;10017;54.350;18.532;2022-12-18T04:10:51;-4.80;99.90
19732;DHT22;10017;54.350;18.532;2022-12-18T04:13:23;-4.80;99.90
19732;DHT22;10017;54.350;18.532;2022-12-18T04:15:55;-4.90;99.90
19732;DHT22;10017;54.350;18.532;2022-12-18T04:18:27;-4.90;99.90
19732;DHT22;10017;54.350;18.532;2022-12-18T04:20:59;-4.90;99.90
19732;DHT22;10017;54.350;18.532;2022-12-18T04:23:33;-4.90;99.90
19732;DHT22;10017;54.350;18.532;2022-12-18T04:26:05;-4.90;99.90
19732;DHT22;10017;54.350;18.532;2022-12-18T04:28:37;-5.00;99.90
19732;DHT22;10017;54.350;18.532;2022-12-18T04:31:09;-5.00;99.90
19732;DHT22;10017;54.350;18.532;2022-12-18T04:33:41;-5.00;99.90
19732;DHT22;10017;54.350;18.532;2022-12-18T04:36:15;-5.00;99.90
19732;DHT22;10017;54.350;18.532;2022-12-18T04:38:47;-5.00;99.90
19732;DHT22;10017;54.350;18.532;2022-12-18T04:41:19;-5.00;99.90
19732;DHT22;10017;54.350;18.532;2022-12-18T04:43:51;-5.00;99.90
19732;DHT22;10017;54.350;18.532;2022-12-18T04:46:22;-5.00;99.90
19732;DHT22;10017;54.350;18.532;2022-12-18T04:48:54;-5.10;99.90
19732;DHT22;10017;54.350;18.532;2022-12-18T04:51:26;-5.00;99.90
19732;DHT22;10017;54.350;18.532;2022-12-18T04:53:58;-5.00;99.90
19732;DHT22;10017;54.350;18.532;2022-12-18T04:56:30;-5.10;99.90
19732;DHT22;10017;54.350;18.532;2022-12-18T04:59:02;-5.10;99.90
19732;DHT22;10017;54.350;18.532;2022-12-18T05:01:34;-5.10;99.90
19732;DHT22;10017;54.350;18.532;2022-12-18T05:04:06;-5.10;99.90
19732;DHT22;10017;54.350;18.532;2022-12-18T05:06:38;-5.10;99.90
19732;DHT22;10017;54.350;18.532;2022-12-18T05:09:10;-5.10;99.90
19732;DHT22;10017;54.350;18.532;2022-12-18T05:11:42;-5.20;99.90
19732;DHT22;10017;54.350;18.532;2022-12-18T05:14:16;-5.20;99.90
19732;DHT22;10017;54.350;18.532;2022-12-18T05:16:48;-5.20;99.90
19732;DHT22;10017;54.350;18.532;2022-12-18T05:19:20;-5.10;99.90
19732;DHT22;10017;54.350;18.532;2022-12-18T05:21:54;-5.10;99.90
19732;DHT22;10017;54.350;18.532;2022-12-18T05:24:28;-5.20;99.90
19732;DHT22;10017;54.350;18.532;2022-12-18T05:27:00;-5.20;99.90
19732;DHT22;10017;54.350;18.532;2022-12-18T05:29:32;-5.20;99.90
19732;DHT22;10017;54.350;18.532;2022-12-18T05:32:05;-5.20;99.90
19732;DHT22;10017;54.350;18.532;2022-12-18T05:34:39;-5.20;99.90
19732;DHT22;10017;54.350;18.532;2022-12-18T05:37:11;-5.20;99.90
19732;DHT22;10017;54.350;18.532;2022-12-18T05:39:43;-5.20;99.90
19732;DHT22;10017;54.350;18.532;2022-12-18T05:42:17;-5.20;99.90
19732;DHT22;10017;54.350;18.532;2022-12-18T05:44:48;-5.20;99.90
19732;DHT22;10017;54.350;18.532;2022-12-18T05:47:22;-5.20;99.90
19732;DHT22;10017;54.350;18.532;2022-12-18T05:49:54;-5.20;99.90
19732;DHT22;10017;54.350;18.532;2022-12-18T05:52:26;-5.20;99.90
19732;DHT22;10017;54.350;18.532;2022-12-18T05:54:58;-5.20;99.90
19732;DHT22;10017;54.350;18.532;2022-12-18T05:57:30;-5.20;99.90
19732;DHT22;10017;54.350;18.532;2022-12-18T06:00:03;-5.20;99.90
19732;DHT22;10017;54.350;18.532;2022-12-18T06:02:37;-5.20;99.90
19732;DHT22;10017;54.350;18.532;2022-12-18T06:05:09;-5.30;99.90
19732;DHT22;10017;54.350;18.532;2022-12-18T06:07:44;-5.20;99.90
19732;DHT22;10017;54.350;18.532;2022-12-18T06:10:18;-5.30;99.90
19732;DHT22;10017;54.350;18.532;2022-12-18T06:12:50;-5.30;99.90
19732;DHT22;10017;54.350;18.532;2022-12-18T06:15:27;-5.30;99.90
19732;DHT22;10017;54.350;18.532;2022-12-18T06:18:01;-5.30;99.90
19732;DHT22;10017;54.350;18.532;2022-12-18T06:20:33;-5.30;99.90
19732;DHT22;10017;54.350;18.532;2022-12-18T06:23:10;-5.30;99.90
19732;DHT22;10017;54.350;18.532;2022-12-18T06:25:44;-5.30;99.90
19732;DHT22;10017;54.350;18.532;2022-12-18T06:28:19;-5.30;99.90
19732;DHT22;10017;54.350;18.532;2022-12-18T06:30:52;-5.40;99.90
19732;DHT22;10017;54.350;18.532;2022-12-18T06:33:27;-5.40;99.90
19732;DHT22;10017;54.350;18.532;2022-12-18T06:36:03;-5.40;99.90
19732;DHT22;10017;54.350;18.532;2022-12-18T06:38:36;-5.40;99.90
19732;DHT22;10017;54.350;18.532;2022-12-18T06:41:20;-5.40;99.90
19732;DHT22;10017;54.350;18.532;2022-12-18T06:43:55;-5.50;99.90
19732;DHT22;10017;54.350;18.532;2022-12-18T06:46:30;-5.50;99.90
19732;DHT22;10017;54.350;18.532;2022-12-18T06:49:03;-5.50;99.90
19732;DHT22;10017;54.350;18.532;2022-12-18T06:51:35;-5.50;99.90
19732;DHT22;10017;54.350;18.532;2022-12-18T06:54:10;-5.50;99.90
19732;DHT22;10017;54.350;18.532;2022-12-18T06:56:44;-5.50;99.90
19732;DHT22;10017;54.350;18.532;2022-12-18T06:59:16;-5.50;99.90
19732;DHT22;10017;54.350;18.532;2022-12-18T07:01:48;-5.40;99.90
19732;DHT22;10017;54.350;18.532;2022-12-18T07:04:20;-5.40;99.90
19732;DHT22;10017;54.350;18.532;2022-12-18T07:06:52;-5.30;99.90
19732;DHT22;10017;54.350;18.532;2022-12-18T07:09:26;-5.30;99.90
19732;DHT22;10017;54.350;18.532;2022-12-18T07:12:00;-5.30;99.90
19732;DHT22;10017;54.350;18.532;2022-12-18T07:14:32;-5.30;99.90
19732;DHT22;10017;54.350;18.532;2022-12-18T07:17:06;-5.30;99.90
19732;DHT22;10017;54.350;18.532;2022-12-18T07:19:39;-5.30;99.90
19732;DHT22;10017;54.350;18.532;2022-12-18T07:22:10;-5.30;99.90
19732;DHT22;10017;54.350;18.532;2022-12-18T07:24:42;-5.30;99.90
19732;DHT22;10017;54.350;18.532;2022-12-18T07:27:14;-5.30;99.90
19732;DHT22;10017;54.350;18.532;2022-12-18T07:29:48;-5.30;99.90
19732;DHT22;10017;54.350;18.532;2022-12-18T07:32:20;-5.20;99.90
19732;DHT22;10017;54.350;18.532;2022-12-18T07:34:54;-5.20;99.90
19732;DHT22;10017;54.350;18.532;2022-12-18T07:37:26;-5.20;99.90
19732;DHT22;10017;54.350;18.532;2022-12-18T07:39:58;-5.20;99.90
19732;DHT22;10017;54.350;18.532;2022-12-18T07:42:30;-5.10;99.90
19732;DHT22;10017;54.350;18.532;2022-12-18T07:45:02;-5.10;99.90
19732;DHT22;10017;54.350;18.532;2022-12-18T07:47:35;-5.00;99.90
19732;DHT22;10017;54.350;18.532;2022-12-18T07:50:07;-5.00;99.90
19732;DHT22;10017;54.350;18.532;2022-12-18T07:52:39;-4.90;99.90
19732;DHT22;10017;54.350;18.532;2022-12-18T07:55:14;-4.90;99.90
19732;DHT22;10017;54.350;18.532;2022-12-18T07:57:48;-4.80;99.90
19732;DHT22;10017;54.350;18.532;2022-12-18T08:00:23;-4.80;99.90
19732;DHT22;10017;54.350;18.532;2022-12-18T08:02:56;-4.70;99.90
19732;DHT22;10017;54.350;18.532;2022-12-18T08:05:31;-4.70;99.90
19732;DHT22;10017;54.350;18.532;2022-12-18T08:08:02;-4.70;99.90
19732;DHT22;10017;54.350;18.532;2022-12-18T08:10:34;-4.60;99.90
19732;DHT22;10017;54.350;18.532;2022-12-18T08:13:06;-4.60;99.90
19732;DHT22;10017;54.350;18.532;2022-12-18T08:15:39;-4.50;99.90
19732;DHT22;10017;54.350;18.532;2022-12-18T08:18:14;-4.50;99.90
19732;DHT22;10017;54.350;18.532;2022-12-18T08:20:45;-4.50;99.90
19732;DHT22;10017;54.350;18.532;2022-12-18T08:23:17;-4.40;99.90
19732;DHT22;10017;54.350;18.532;2022-12-18T08:25:49;-4.40;99.90
19732;DHT22;10017;54.350;18.532;2022-12-18T08:28:22;-4.30;99.90
19732;DHT22;10017;54.350;18.532;2022-12-18T08:30:56;-4.30;99.90
19732;DHT22;10017;54.350;18.532;2022-12-18T08:33:31;-4.20;99.90
19732;DHT22;10017;54.350;18.532;2022-12-18T08:36:03;-4.10;99.90
19732;DHT22;10017;54.350;18.532;2022-12-18T08:38:37;-4.10;99.90
19732;DHT22;10017;54.350;18.532;2022-12-18T08:41:10;-4.00;99.90
19732;DHT22;10017;54.350;18.532;2022-12-18T08:43:42;-4.00;99.90
19732;DHT22;10017;54.350;18.532;2022-12-18T08:46:37;-3.90;99.90
19732;DHT22;10017;54.350;18.532;2022-12-18T08:49:10;-3.80;99.90
19732;DHT22;10017;54.350;18.532;2022-12-18T08:51:42;-3.70;99.90
19732;DHT22;10017;54.350;18.532;2022-12-18T08:54:13;-3.60;99.90
19732;DHT22;10017;54.350;18.532;2022-12-18T08:56:45;-3.60;99.90
19732;DHT22;10017;54.350;18.532;2022-12-18T08:59:18;-3.50;99.90
19732;DHT22;10017;54.350;18.532;2022-12-18T09:01:53;-3.40;99.90
19732;DHT22;10017;54.350;18.532;2022-12-18T09:04:25;-3.30;99.90
19732;DHT22;10017;54.350;18.532;2022-12-18T09:06:57;-3.20;99.90
19732;DHT22;10017;54.350;18.532;2022-12-18T09:09:29;-3.20;99.90
19732;DHT22;10017;54.350;18.532;2022-12-18T09:12:00;-3.10;99.90
19732;DHT22;10017;54.350;18.532;2022-12-18T09:14:32;-3.00;99.90
19732;DHT22;10017;54.350;18.532;2022-12-18T09:17:04;-3.00;99.90
19732;DHT22;10017;54.350;18.532;2022-12-18T09:19:36;-2.90;99.90
19732;DHT22;10017;54.350;18.532;2022-12-18T09:22:08;-2.90;99.90
19732;DHT22;10017;54.350;18.532;2022-12-18T09:24:41;-2.80;99.90
19732;DHT22;10017;54.350;18.532;2022-12-18T09:27:12;-2.70;99.90
19732;DHT22;10017;54.350;18.532;2022-12-18T09:29:44;-2.70;99.90
19732;DHT22;10017;54.350;18.532;2022-12-18T09:32:16;-2.60;99.90
19732;DHT22;10017;54.350;18.532;2022-12-18T09:34:53;-2.60;99.90
19732;DHT22;10017;54.350;18.532;2022-12-18T09:37:24;-2.60;99.90
19732;DHT22;10017;54.350;18.532;2022-12-18T09:39:56;-2.50;99.90
19732;DHT22;10017;54.350;18.532;2022-12-18T09:42:30;-2.50;99.90
19732;DHT22;10017;54.350;18.532;2022-12-18T09:45:02;-2.50;99.90
19732;DHT22;10017;54.350;18.532;2022-12-18T09:47:35;-2.40;99.90
19732;DHT22;10017;54.350;18.532;2022-12-18T09:50:31;-2.40;99.90
19732;DHT22;10017;54.350;18.532;2022-12-18T09:53:06;-2.40;99.90
19732;DHT22;10017;54.350;18.532;2022-12-18T09:55:45;-2.30;99.90
19732;DHT22;10017;54.350;18.532;2022-12-18T09:58:39;-2.30;99.90
19732;DHT22;10017;54.350;18.532;2022-12-18T10:01:23;-2.30;99.90
19732;DHT22;10017;54.350;18.532;2022-12-18T10:04:08;-2.30;99.90
19732;DHT22;10017;54.350;18.532;2022-12-18T10:07:01;-2.30;99.90
19732;DHT22;10017;54.350;18.532;2022-12-18T10:09:42;-2.20;99.90
19732;DHT22;10017;54.350;18.532;2022-12-18T10:12:38;-2.20;99.90
19732;DHT22;10017;54.350;18.532;2022-12-18T10:20:38;-2.00;99.90
19732;DHT22;10017;54.350;18.532;2022-12-18T10:25:50;-1.90;99.90
19732;DHT22;10017;54.350;18.532;2022-12-18T10:28:25;-1.90;99.90
19732;DHT22;10017;54.350;18.532;2022-12-18T10:30:57;-1.90;99.90
19732;DHT22;10017;54.350;18.532;2022-12-18T10:33:30;-1.90;99.90
19732;DHT22;10017;54.350;18.532;2022-12-18T10:36:03;-1.80;99.90
19732;DHT22;10017;54.350;18.532;2022-12-18T10:38:35;-1.70;99.90
19732;DHT22;10017;54.350;18.532;2022-12-18T10:44:11;-1.60;99.90
19732;DHT22;10017;54.350;18.532;2022-12-18T10:46:44;-1.60;99.90
19732;DHT22;10017;54.350;18.532;2022-12-18T10:49:29;-1.50;99.90
19732;DHT22;10017;54.350;18.532;2022-12-18T10:52:06;-1.50;99.90
19732;DHT22;10017;54.350;18.532;2022-12-18T10:54:38;-1.40;99.90
19732;DHT22;10017;54.350;18.532;2022-12-18T10:57:14;-1.30;99.90
19732;DHT22;10017;54.350;18.532;2022-12-18T10:59:53;-1.30;99.90
19732;DHT22;10017;54.350;18.532;2022-12-18T11:02:36;-1.20;99.90
19732;DHT22;10017;54.350;18.532;2022-12-18T11:08:02;-1.10;99.90
19732;DHT22;10017;54.350;18.532;2022-12-18T11:10:35;-1.10;99.90
19732;DHT22;10017;54.350;18.532;2022-12-18T11:15:43;-0.70;99.90
19732;DHT22;10017;54.350;18.532;2022-12-18T11:18:22;-0.50;99.90
19732;DHT22;10017;54.350;18.532;2022-12-18T11:20:55;-0.30;99.90
19732;DHT22;10017;54.350;18.532;2022-12-18T11:23:29;-0.20;99.90
19732;DHT22;10017;54.350;18.532;2022-12-18T11:26:02;-0.30;99.90
19732;DHT22;10017;54.350;18.532;2022-12-18T11:31:11;-0.50;45.50
19732;DHT22;10017;54.350;18.532;2022-12-18T11:33:46;-0.60;47.10
19732;DHT22;10017;54.350;18.532;2022-12-18T11:36:40;-0.70;56.00
19732;DHT22;10017;54.350;18.532;2022-12-18T11:39:17;-0.80;70.30
19732;DHT22;10017;54.350;18.532;2022-12-18T11:41:57;-0.80;87.60
19732;DHT22;10017;54.350;18.532;2022-12-18T11:47:21;-0.90;99.90
19732;DHT22;10017;54.350;18.532;2022-12-18T11:49:59;-0.90;97.70
19732;DHT22;10017;54.350;18.532;2022-12-18T11:52:33;-0.90;97.10
19732;DHT22;10017;54.350;18.532;2022-12-18T11:55:11;-0.90;99.90
19732;DHT22;10017;54.350;18.532;2022-12-18T12:00:24;-0.90;95.30
19732;DHT22;10017;54.350;18.532;2022-12-18T12:33:05;0.20;1.00
19732;DHT22;10017;54.350;18.532;2022-12-18T12:35:58;0.10;1.00
19732;DHT22;10017;54.350;18.532;2022-12-18T12:41:06;-0.30;1.00
19732;DHT22;10017;54.350;18.532;2022-12-18T12:44:00;-0.40;1.00
19732;DHT22;10017;54.350;18.532;2022-12-18T12:46:37;-0.60;1.00
19732;DHT22;10017;54.350;18.532;2022-12-18T12:49:15;-0.70;1.00
19732;DHT22;10017;54.350;18.532;2022-12-18T12:51:50;-0.80;7.70
19732;DHT22;10017;54.350;18.532;2022-12-18T12:54:28;-0.80;11.30
19732;DHT22;10017;54.350;18.532;2022-12-18T13:00:00;-1.00;28.20
19732;DHT22;10017;54.350;18.532;2022-12-18T13:08:06;-1.20;60.60
19732;DHT22;10017;54.350;18.532;2022-12-18T13:10:39;-1.20;67.70
19732;DHT22;10017;54.350;18.532;2022-12-18T13:13:12;-1.30;72.40
19732;DHT22;10017;54.350;18.532;2022-12-18T13:16:11;-1.40;85.20
19732;DHT22;10017;54.350;18.532;2022-12-18T13:18:47;-1.40;95.10
19732;DHT22;10017;54.350;18.532;2022-12-18T13:21:21;-1.50;98.90
19732;DHT22;10017;54.350;18.532;2022-12-18T13:23:55;-1.50;99.90
19732;DHT22;10017;54.350;18.532;2022-12-18T13:26:30;-1.60;99.90
19732;DHT22;10017;54.350;18.532;2022-12-18T13:29:03;-1.70;99.90
19732;DHT22;10017;54.350;18.532;2022-12-18T13:39:51;-2.00;99.90
19732;DHT22;10017;54.350;18.532;2022-12-18T13:48:04;-2.20;99.90
19732;DHT22;10017;54.350;18.532;2022-12-18T13:50:37;-2.30;99.90
19732;DHT22;10017;54.350;18.532;2022-12-18T13:56:09;-2.40;99.90
19732;DHT22;10017;54.350;18.532;2022-12-18T13:58:40;-2.50;99.90
19732;DHT22;10017;54.350;18.532;2022-12-18T14:01:23;-2.50;99.90
19732;DHT22;10017;54.350;18.532;2022-12-18T14:04:08;-2.60;99.90
19732;DHT22;10017;54.350;18.532;2022-12-18T14:06:41;-2.70;99.90
19732;DHT22;10017;54.350;18.532;2022-12-18T14:09:16;-2.70;99.90
19732;DHT22;10017;54.350;18.532;2022-12-18T14:11:54;-2.80;99.90
19732;DHT22;10017;54.350;18.532;2022-12-18T14:14:47;-2.80;99.90
19732;DHT22;10017;54.350;18.532;2022-12-18T14:17:23;-2.90;99.90
19732;DHT22;10017;54.350;18.532;2022-12-18T14:19:58;-2.90;99.90
19732;DHT22;10017;54.350;18.532;2022-12-18T14:22:29;-3.00;99.90
19732;DHT22;10017;54.350;18.532;2022-12-18T14:25:06;-3.00;99.90
19732;DHT22;10017;54.350;18.532;2022-12-18T14:28:22;-3.10;99.90
19732;DHT22;10017;54.350;18.532;2022-12-18T14:30:36;-3.10;99.90
19732;DHT22;10017;54.350;18.532;2022-12-18T14:33:15;-3.20;99.90
19732;DHT22;10017;54.350;18.532;2022-12-18T14:38:39;-3.30;99.90
19732;DHT22;10017;54.350;18.532;2022-12-18T14:41:15;-3.30;99.90
19732;DHT22;10017;54.350;18.532;2022-12-18T14:43:48;-3.40;99.90
19732;DHT22;10017;54.350;18.532;2022-12-18T14:46:34;-3.40;99.90
19732;DHT22;10017;54.350;18.532;2022-12-18T14:49:20;-3.50;99.90
19732;DHT22;10017;54.350;18.532;2022-12-18T14:51:56;-3.50;99.90
19732;DHT22;10017;54.350;18.532;2022-12-18T14:54:28;-3.50;99.90
19732;DHT22;10017;54.350;18.532;2022-12-18T14:57:02;-3.60;99.90
19732;DHT22;10017;54.350;18.532;2022-12-18T14:59:34;-3.60;99.90
19732;DHT22;10017;54.350;18.532;2022-12-18T15:02:12;-3.60;99.90
19732;DHT22;10017;54.350;18.532;2022-12-18T15:04:47;-3.60;99.90
19732;DHT22;10017;54.350;18.532;2022-12-18T15:07:21;-3.60;99.90
19732;DHT22;10017;54.350;18.532;2022-12-18T15:13:20;-3.70;99.90
19732;DHT22;10017;54.350;18.532;2022-12-18T15:15:44;-3.70;99.90
19732;DHT22;10017;54.350;18.532;2022-12-18T15:18:17;-3.70;99.90
19732;DHT22;10017;54.350;18.532;2022-12-18T15:20:53;-3.80;99.90
19732;DHT22;10017;54.350;18.532;2022-12-18T15:26:08;-3.80;99.90
19732;DHT22;10017;54.350;18.532;2022-12-18T15:28:46;-3.90;99.90
19732;DHT22;10017;54.350;18.532;2022-12-18T15:36:25;-4.00;99.90
19732;DHT22;10017;54.350;18.532;2022-12-18T15:38:57;-4.10;99.90
19732;DHT22;10017;54.350;18.532;2022-12-18T15:41:35;-4.10;99.90
19732;DHT22;10017;54.350;18.532;2022-12-18T15:44:23;-4.10;99.90
19732;DHT22;10017;54.350;18.532;2022-12-18T15:46:56;-4.10;99.90
19732;DHT22;10017;54.350;18.532;2022-12-18T15:49:30;-4.10;99.90
19732;DHT22;10017;54.350;18.532;2022-12-18T15:52:02;-4.10;99.90
19732;DHT22;10017;54.350;18.532;2022-12-18T15:54:34;-4.20;99.90
19732;DHT22;10017;54.350;18.532;2022-12-18T15:57:24;-4.10;99.90
19732;DHT22;10017;54.350;18.532;2022-12-18T15:59:56;-4.10;99.90
19732;DHT22;10017;54.350;18.532;2022-12-18T16:02:29;-4.10;99.90
19732;DHT22;10017;54.350;18.532;2022-12-18T16:05:02;-4.10;99.90
19732;DHT22;10017;54.350;18.532;2022-12-18T16:07:34;-4.10;99.90
19732;DHT22;10017;54.350;18.532;2022-12-18T16:10:06;-4.10;99.90
19732;DHT22;10017;54.350;18.532;2022-12-18T16:12:38;-4.20;99.90
19732;DHT22;10017;54.350;18.532;2022-12-18T16:15:10;-4.20;99.90
19732;DHT22;10017;54.350;18.532;2022-12-18T16:17:47;-4.20;99.90
19732;DHT22;10017;54.350;18.532;2022-12-18T16:20:22;-4.30;99.90
19732;DHT22;10017;54.350;18.532;2022-12-18T16:22:56;-4.30;99.90
19732;DHT22;10017;54.350;18.532;2022-12-18T16:25:28;-4.30;99.90
19732;DHT22;10017;54.350;18.532;2022-12-18T16:28:00;-4.30;99.90
19732;DHT22;10017;54.350;18.532;2022-12-18T16:30:32;-4.40;99.90
19732;DHT22;10017;54.350;18.532;2022-12-18T16:33:09;-4.40;99.90
19732;DHT22;10017;54.350;18.532;2022-12-18T16:35:42;-4.40;99.90
19732;DHT22;10017;54.350;18.532;2022-12-18T16:38:16;-4.50;99.90
19732;DHT22;10017;54.350;18.532;2022-12-18T16:40:47;-4.60;99.90
19732;DHT22;10017;54.350;18.532;2022-12-18T16:43:38;-4.70;99.90
19732;DHT22;10017;54.350;18.532;2022-12-18T16:46:10;-4.70;99.90
19732;DHT22;10017;54.350;18.532;2022-12-18T16:48:42;-4.70;99.90
19732;DHT22;10017;54.350;18.532;2022-12-18T16:51:14;-4.70;99.90
19732;DHT22;10017;54.350;18.532;2022-12-18T16:53:49;-4.80;99.90
19732;DHT22;10017;54.350;18.532;2022-12-18T16:56:23;-4.80;99.90
19732;DHT22;10017;54.350;18.532;2022-12-18T16:58:56;-4.80;99.90
19732;DHT22;10017;54.350;18.532;2022-12-18T17:01:28;-4.80;99.90
19732;DHT22;10017;54.350;18.532;2022-12-18T17:04:02;-4.80;99.90
19732;DHT22;10017;54.350;18.532;2022-12-18T17:06:35;-4.80;99.90
19732;DHT22;10017;54.350;18.532;2022-12-18T17:09:08;-4.90;99.90
19732;DHT22;10017;54.350;18.532;2022-12-18T17:11:41;-4.90;99.90
19732;DHT22;10017;54.350;18.532;2022-12-18T17:14:17;-5.00;99.90
19732;DHT22;10017;54.350;18.532;2022-12-18T17:16:49;-4.90;99.90
19732;DHT22;10017;54.350;18.532;2022-12-18T17:19:41;-4.90;99.90
19732;DHT22;10017;54.350;18.532;2022-12-18T17:22:13;-5.00;99.90
19732;DHT22;10017;54.350;18.532;2022-12-18T17:24:47;-5.00;99.90
19732;DHT22;10017;54.350;18.532;2022-12-18T17:27:19;-5.10;99.90
19732;DHT22;10017;54.350;18.532;2022-12-18T17:29:51;-5.10;99.90
19732;DHT22;10017;54.350;18.532;2022-12-18T17:32:24;-5.10;99.90
19732;DHT22;10017;54.350;18.532;2022-12-18T17:34:56;-5.20;99.90
19732;DHT22;10017;54.350;18.532;2022-12-18T17:37:34;-5.20;99.90
19732;DHT22;10017;54.350;18.532;2022-12-18T17:40:06;-5.20;99.90
19732;DHT22;10017;54.350;18.532;2022-12-18T17:42:38;-5.30;99.90
19732;DHT22;10017;54.350;18.532;2022-12-18T17:45:12;-5.30;99.90
19732;DHT22;10017;54.350;18.532;2022-12-18T17:47:44;-5.40;99.90
19732;DHT22;10017;54.350;18.532;2022-12-18T17:50:16;-5.40;99.90
19732;DHT22;10017;54.350;18.532;2022-12-18T17:52:48;-5.50;99.90
19732;DHT22;10017;54.350;18.532;2022-12-18T17:55:23;-5.50;99.90
19732;DHT22;10017;54.350;18.532;2022-12-18T17:57:55;-5.50;99.90
19732;DHT22;10017;54.350;18.532;2022-12-18T18:00:29;-5.60;99.90
19732;DHT22;10017;54.350;18.532;2022-12-18T18:03:01;-5.60;99.90
19732;DHT22;10017;54.350;18.532;2022-12-18T18:05:33;-5.70;99.90
19732;DHT22;10017;54.350;18.532;2022-12-18T18:08:07;-5.70;99.90
19732;DHT22;10017;54.350;18.532;2022-12-18T18:10:39;-5.80;99.90
19732;DHT22;10017;54.350;18.532;2022-12-18T18:13:21;-5.80;99.90
19732;DHT22;10017;54.350;18.532;2022-12-18T18:16:19;-5.80;99.90
19732;DHT22;10017;54.350;18.532;2022-12-18T18:18:51;-5.90;99.90